createdAt,value
2018-12-27T00:00:52.065Z,7.90
2018-12-27T00:03:21.893Z,7.93
2018-12-27T00:05:51.719Z,7.98
2018-12-27T00:08:21.524Z,8.11
2018-12-27T00:10:51.405Z,7.89
2018-12-27T00:13:21.573Z,8.00
2018-12-27T00:15:51.409Z,8.05
2018-12-27T00:18:21.135Z,7.99
2018-12-27T00:20:50.997Z,8.05
2018-12-27T00:23:20.701Z,7.95
2018-12-27T00:25:50.533Z,7.86
2018-12-27T00:28:20.382Z,7.97
2018-12-27T00:30:50.284Z,8.01
2018-12-27T00:33:20.283Z,8.08
2018-12-27T00:35:50.229Z,7.86
2018-12-27T00:38:20.183Z,8.03
2018-12-27T00:40:50.155Z,7.92
2018-12-27T00:43:20.116Z,7.96
2018-12-27T00:45:50.041Z,8.00
2018-12-27T00:48:20.004Z,7.96
2018-12-27T00:50:49.967Z,7.91
2018-12-27T00:53:19.931Z,7.89
2018-12-27T00:55:49.864Z,8.09
2018-12-27T00:58:19.801Z,7.96
2018-12-27T01:00:49.730Z,7.96
2018-12-27T01:03:19.711Z,7.94
2018-12-27T01:05:49.682Z,8.00
2018-12-27T01:08:19.837Z,8.18
2018-12-27T01:10:49.770Z,8.12
2018-12-27T01:13:19.773Z,7.90
2018-12-27T01:15:49.734Z,7.95
2018-12-27T01:18:19.716Z,8.08
2018-12-27T01:20:49.743Z,8.01
2018-12-27T01:23:22.862Z,8.16
2018-12-27T01:25:52.849Z,8.04
2018-12-27T01:28:23.223Z,8.05
2018-12-27T01:30:53.522Z,8.13
2018-12-27T01:33:23.487Z,8.22
2018-12-27T01:35:53.485Z,7.94
2018-12-27T01:38:23.644Z,8.10
2018-12-27T01:40:53.653Z,7.78
2018-12-27T01:43:23.622Z,7.89
2018-12-27T01:45:53.586Z,7.85
2018-12-27T01:48:23.555Z,8.05
2018-12-27T01:50:53.494Z,8.08
2018-12-27T01:53:23.494Z,7.90
2018-12-27T01:55:53.536Z,7.83
2018-12-27T01:58:23.461Z,7.80
2018-12-27T02:00:53.685Z,7.84
2018-12-27T02:03:26.588Z,7.69
2018-12-27T02:05:55.367Z,7.66
2018-12-27T02:08:25.335Z,7.77
2018-12-27T02:10:55.355Z,7.71
2018-12-27T02:13:25.396Z,7.75
2018-12-27T02:15:55.322Z,7.61
2018-12-27T02:18:25.335Z,7.87
2018-12-27T02:20:55.317Z,7.72
2018-12-27T02:23:25.301Z,7.86
2018-12-27T02:25:55.253Z,7.79
2018-12-27T02:28:25.210Z,7.84
2018-12-27T02:30:55.176Z,7.86
2018-12-27T02:33:25.144Z,7.73
2018-12-27T02:35:55.096Z,7.73
2018-12-27T02:38:25.303Z,7.72
2018-12-27T02:40:55.252Z,7.78
2018-12-27T02:43:25.213Z,7.61
2018-12-27T02:45:55.189Z,7.66
2018-12-27T02:48:25.092Z,7.60
2018-12-27T02:50:55.056Z,7.65
2018-12-27T02:53:24.991Z,7.49
2018-12-27T02:55:54.934Z,7.54
2018-12-27T02:58:24.908Z,7.43
2018-12-27T03:00:55.227Z,7.42
2018-12-27T03:03:25.225Z,7.59
2018-12-27T03:05:55.183Z,7.51
2018-12-27T03:08:25.110Z,7.73
2018-12-27T03:10:55.147Z,7.25
2018-12-27T03:13:25.104Z,7.40
2018-12-27T03:15:55.148Z,7.57
2018-12-27T03:18:25.078Z,7.25
2018-12-27T03:20:55.075Z,7.36
2018-12-27T03:23:25.073Z,7.49
2018-12-27T03:25:55.038Z,7.62
2018-12-27T03:28:24.979Z,7.42
2018-12-27T03:30:54.938Z,7.47
2018-12-27T03:33:24.957Z,7.34
2018-12-27T03:35:54.930Z,7.35
2018-12-27T03:38:24.881Z,7.40
2018-12-27T03:40:54.853Z,7.19
2018-12-27T03:43:24.851Z,7.17
2018-12-27T03:45:54.804Z,7.29
2018-12-27T03:48:24.716Z,7.19
2018-12-27T03:50:54.768Z,7.38
2018-12-27T03:53:24.721Z,7.25
2018-12-27T03:55:54.756Z,7.30
2018-12-27T03:58:24.687Z,7.36
2018-12-27T04:00:54.729Z,7.33
2018-12-27T04:03:24.753Z,7.06
2018-12-27T04:05:54.778Z,7.38
2018-12-27T04:08:24.728Z,7.21
2018-12-27T04:10:54.769Z,7.39
2018-12-27T04:13:31.881Z,7.40
2018-12-27T04:16:01.705Z,7.27
2018-12-27T04:18:31.476Z,7.21
2018-12-27T04:21:01.189Z,7.08
2018-12-27T04:23:30.883Z,7.27
2018-12-27T04:26:00.630Z,7.30
2018-12-27T04:28:30.344Z,7.30
2018-12-27T04:31:00.206Z,7.14
2018-12-27T04:33:30.068Z,7.16
2018-12-27T04:36:00.156Z,7.08
2018-12-27T04:38:29.849Z,7.10
2018-12-27T04:40:59.620Z,7.12
2018-12-27T04:43:29.683Z,7.17
2018-12-27T04:45:59.481Z,7.13
2018-12-27T04:48:29.210Z,6.97
2018-12-27T04:50:58.993Z,7.28
2018-12-27T04:53:28.709Z,7.14
2018-12-27T04:55:58.392Z,7.29
2018-12-27T04:58:28.105Z,7.21
2018-12-27T05:00:57.791Z,7.07
2018-12-27T05:03:27.574Z,7.10
2018-12-27T05:05:57.407Z,7.31
2018-12-27T05:08:27.061Z,7.20
2018-12-27T05:10:56.793Z,7.13
2018-12-27T05:13:26.531Z,7.34
2018-12-27T05:15:56.242Z,7.25
2018-12-27T05:18:26.331Z,7.26
2018-12-27T05:20:56.021Z,7.22
2018-12-27T05:23:25.712Z,7.10
2018-12-27T05:25:55.427Z,6.93
2018-12-27T05:28:25.103Z,6.92
2018-12-27T05:30:54.813Z,7.00
2018-12-27T05:33:24.485Z,7.02
2018-12-27T05:35:57.710Z,6.86
2018-12-27T05:38:30.122Z,7.08
2018-12-27T05:41:01.529Z,7.08
2018-12-27T05:43:31.331Z,6.88
2018-12-27T05:46:01.029Z,6.83
2018-12-27T05:48:30.941Z,6.90
2018-12-27T05:51:00.631Z,6.88
2018-12-27T05:53:30.353Z,7.04
2018-12-27T05:56:00.134Z,6.94
2018-12-27T05:58:29.858Z,7.03
2018-12-27T06:00:59.569Z,7.08
2018-12-27T06:03:29.266Z,7.04
2018-12-27T06:05:59.098Z,7.17
2018-12-27T06:08:28.790Z,6.77
2018-12-27T06:10:58.479Z,6.99
2018-12-27T06:13:28.285Z,7.18
2018-12-27T06:15:57.986Z,7.08
2018-12-27T06:18:27.791Z,6.83
2018-12-27T06:20:57.548Z,7.00
2018-12-27T06:23:27.430Z,7.04
2018-12-27T06:25:57.255Z,7.20
2018-12-27T06:28:26.968Z,7.23
2018-12-27T06:30:56.989Z,7.03
2018-12-27T06:33:26.866Z,6.90
2018-12-27T06:35:56.877Z,7.03
2018-12-27T06:38:26.796Z,7.16
2018-12-27T06:40:57.047Z,7.05
2018-12-27T06:43:26.739Z,7.03
2018-12-27T06:45:56.505Z,7.03
2018-12-27T06:48:26.307Z,6.92
2018-12-27T06:50:58.844Z,6.94
2018-12-27T06:53:28.623Z,6.92
2018-12-27T06:55:58.328Z,6.87
2018-12-27T06:58:28.052Z,6.95
2018-12-27T07:00:57.745Z,7.01
2018-12-27T07:03:27.469Z,6.81
2018-12-27T07:05:57.250Z,6.96
2018-12-27T07:08:26.971Z,7.02
2018-12-27T07:10:56.738Z,6.95
2018-12-27T07:13:26.470Z,7.07
2018-12-27T07:15:56.161Z,7.01
2018-12-27T07:18:25.940Z,6.82
2018-12-27T07:20:55.733Z,6.87
2018-12-27T07:23:25.433Z,7.06
2018-12-27T07:25:55.159Z,7.03
2018-12-27T07:28:24.894Z,6.93
2018-12-27T07:30:54.590Z,7.02
2018-12-27T07:33:24.264Z,6.85
2018-12-27T07:35:54.109Z,7.03
2018-12-27T07:38:23.808Z,6.97
2018-12-27T07:40:53.469Z,7.09
2018-12-27T07:43:23.175Z,6.94
2018-12-27T07:45:52.855Z,7.02
2018-12-27T07:48:22.574Z,7.18
2018-12-27T07:50:52.329Z,7.07
2018-12-27T07:53:22.199Z,7.08
2018-12-27T07:55:52.088Z,7.06
2018-12-27T07:58:21.846Z,7.08
2018-12-27T08:00:56.020Z,7.17
2018-12-27T08:03:26.543Z,7.18
2018-12-27T08:05:56.257Z,7.25
2018-12-27T08:08:25.957Z,7.16
2018-12-27T08:10:55.743Z,7.23
2018-12-27T08:13:25.443Z,6.90
2018-12-27T08:15:55.186Z,7.22
2018-12-27T08:18:25.011Z,7.14
2018-12-27T08:20:54.744Z,7.10
2018-12-27T08:23:24.443Z,7.06
2018-12-27T08:25:54.325Z,7.11
2018-12-27T08:28:24.068Z,7.13
2018-12-27T08:30:53.803Z,6.85
2018-12-27T08:33:23.468Z,6.99
2018-12-27T08:35:53.507Z,7.01
2018-12-27T08:38:23.268Z,6.98
2018-12-27T08:40:53.127Z,7.17
2018-12-27T08:43:22.874Z,6.97
2018-12-27T08:45:52.593Z,6.99
2018-12-27T08:48:22.341Z,7.04
2018-12-27T08:50:52.092Z,7.16
2018-12-27T08:53:21.894Z,7.06
2018-12-27T08:55:51.627Z,7.34
2018-12-27T08:58:21.370Z,7.07
2018-12-27T09:00:51.160Z,7.12
2018-12-27T09:03:20.904Z,7.08
2018-12-27T09:05:50.685Z,7.14
2018-12-27T09:08:20.419Z,7.15
2018-12-27T09:10:50.098Z,7.17
2018-12-27T09:13:19.866Z,7.23
2018-12-27T09:15:49.565Z,7.16
2018-12-27T09:18:19.239Z,7.09
2018-12-27T09:20:48.939Z,7.15
2018-12-27T09:23:18.629Z,7.23
2018-12-27T09:25:48.373Z,7.06
2018-12-27T09:28:18.069Z,7.22
2018-12-27T09:30:47.859Z,7.26
2018-12-27T09:33:17.589Z,7.18
2018-12-27T09:35:47.304Z,7.31
2018-12-27T09:38:17.078Z,7.19
2018-12-27T09:40:46.779Z,7.22
2018-12-27T09:43:16.549Z,7.18
2018-12-27T09:45:46.316Z,7.12
2018-12-27T09:48:16.082Z,7.25
2018-12-27T09:50:45.871Z,7.28
2018-12-27T09:53:17.133Z,7.35
2018-12-27T09:55:46.904Z,7.27
2018-12-27T09:58:16.592Z,7.17
2018-12-27T10:00:46.460Z,7.24
2018-12-27T10:03:16.297Z,7.17
2018-12-27T10:05:46.061Z,7.00
2018-12-27T10:08:15.882Z,7.19
2018-12-27T10:10:46.004Z,7.39
2018-12-27T10:13:15.717Z,7.40
2018-12-27T10:15:45.568Z,7.44
2018-12-27T10:18:15.413Z,7.27
2018-12-27T10:20:45.175Z,7.24
2018-12-27T10:23:14.960Z,7.19
2018-12-27T10:25:44.755Z,7.23
2018-12-27T10:28:14.554Z,7.31
2018-12-27T10:30:44.245Z,7.33
2018-12-27T10:33:14.105Z,7.37
2018-12-27T10:35:43.832Z,7.40
2018-12-27T10:38:13.619Z,7.30
2018-12-27T10:40:43.311Z,7.40
2018-12-27T10:43:13.103Z,7.51
2018-12-27T10:45:42.858Z,7.48
2018-12-27T10:48:12.548Z,7.63
2018-12-27T10:50:42.251Z,7.49
2018-12-27T10:53:12.016Z,7.50
2018-12-27T10:55:41.800Z,7.37
2018-12-27T10:58:11.482Z,7.47
2018-12-27T11:00:41.326Z,7.57
2018-12-27T11:03:11.006Z,7.45
2018-12-27T11:05:40.794Z,7.58
2018-12-27T11:08:10.528Z,7.43
2018-12-27T11:10:40.219Z,7.50
2018-12-27T11:13:10.037Z,7.53
2018-12-27T11:15:39.746Z,7.51
2018-12-27T11:18:09.542Z,7.58
2018-12-27T11:20:39.312Z,7.51
2018-12-27T11:23:09.182Z,7.56
2018-12-27T11:25:38.998Z,7.47
2018-12-27T11:28:08.781Z,7.54
2018-12-27T11:30:38.502Z,7.64
2018-12-27T11:33:08.266Z,7.60
2018-12-27T11:35:38.046Z,7.79
2018-12-27T11:38:07.727Z,7.79
2018-12-27T11:40:37.440Z,7.67
2018-12-27T11:43:07.139Z,7.63
2018-12-27T11:45:36.869Z,7.68
2018-12-27T11:48:06.663Z,7.56
2018-12-27T11:50:36.369Z,7.64
2018-12-27T11:53:06.158Z,7.58
2018-12-27T11:55:35.878Z,7.62
2018-12-27T11:58:05.635Z,7.69
2018-12-27T12:00:35.445Z,7.72
2018-12-27T12:03:05.178Z,7.62
2018-12-27T12:05:34.925Z,7.70
2018-12-27T12:08:04.786Z,7.66
2018-12-27T12:10:34.618Z,7.80
2018-12-27T12:13:10.105Z,7.81
2018-12-27T12:15:39.791Z,7.89
2018-12-27T12:18:09.597Z,7.74
2018-12-27T12:20:39.367Z,7.90
2018-12-27T12:23:09.132Z,7.77
2018-12-27T12:25:40.559Z,7.88
2018-12-27T12:28:10.336Z,7.82
2018-12-27T12:30:40.043Z,7.89
2018-12-27T12:33:09.709Z,7.91
2018-12-27T12:35:39.502Z,7.90
2018-12-27T12:38:09.262Z,7.85
2018-12-27T12:40:38.950Z,7.86
2018-12-27T12:43:08.704Z,7.87
2018-12-27T12:45:38.403Z,7.67
2018-12-27T12:48:08.174Z,7.76
2018-12-27T12:50:37.913Z,7.89
2018-12-27T12:53:07.709Z,7.85
2018-12-27T12:55:37.494Z,7.76
2018-12-27T12:58:07.305Z,7.88
2018-12-27T13:00:37.009Z,7.82
2018-12-27T13:03:06.752Z,7.73
2018-12-27T13:05:36.524Z,7.88
2018-12-27T13:08:06.270Z,7.71
2018-12-27T13:10:35.975Z,7.87
2018-12-27T13:13:05.761Z,7.86
2018-12-27T13:15:35.443Z,7.81
2018-12-27T13:18:05.220Z,7.77
2018-12-27T13:20:34.987Z,7.87
2018-12-27T13:23:04.707Z,7.83
2018-12-27T13:25:34.395Z,7.76
2018-12-27T13:28:04.095Z,7.72
2018-12-27T13:30:33.877Z,7.75
2018-12-27T13:33:03.635Z,7.86
2018-12-27T13:35:33.415Z,7.84
2018-12-27T13:38:03.101Z,7.76
2018-12-27T13:40:32.810Z,7.74
2018-12-27T13:43:02.494Z,7.81
2018-12-27T13:45:32.207Z,7.84
2018-12-27T13:48:02.400Z,7.88
2018-12-27T13:50:32.124Z,7.86
2018-12-27T13:53:01.819Z,7.97
2018-12-27T13:55:31.563Z,7.86
2018-12-27T13:58:01.253Z,7.86
2018-12-27T14:00:30.985Z,7.89
2018-12-27T14:03:00.809Z,7.94
2018-12-27T14:05:30.551Z,7.77
2018-12-27T14:08:00.322Z,7.81
2018-12-27T14:10:30.022Z,7.93
2018-12-27T14:12:59.706Z,7.88
2018-12-27T14:15:29.465Z,7.87
2018-12-27T14:17:59.418Z,7.98
2018-12-27T14:20:29.095Z,7.99
2018-12-27T14:22:58.815Z,7.91
2018-12-27T14:25:28.487Z,7.95
2018-12-27T14:27:58.145Z,8.08
2018-12-27T14:30:27.880Z,8.10
2018-12-27T14:32:57.581Z,7.99
2018-12-27T14:35:27.305Z,7.89
2018-12-27T14:37:57.074Z,7.97
2018-12-27T14:40:26.840Z,7.99
2018-12-27T14:42:56.654Z,8.02
2018-12-27T14:45:26.426Z,7.92
2018-12-27T14:47:56.113Z,8.02
2018-12-27T14:50:25.920Z,7.98
2018-12-27T14:52:55.691Z,8.06
2018-12-27T14:55:25.423Z,7.96
2018-12-27T14:57:55.178Z,7.91
2018-12-27T15:00:24.887Z,8.06
2018-12-27T15:02:54.656Z,8.07
2018-12-27T15:05:24.443Z,8.06
2018-12-27T15:07:54.139Z,8.04
2018-12-27T15:10:23.809Z,8.03
2018-12-27T15:12:53.518Z,8.08
2018-12-27T15:15:23.213Z,8.06
2018-12-27T15:17:52.878Z,8.03
2018-12-27T15:20:22.562Z,8.05
2018-12-27T15:22:52.255Z,7.96
2018-12-27T15:25:21.929Z,8.01
2018-12-27T15:27:51.629Z,7.87
2018-12-27T15:30:21.429Z,7.92
2018-12-27T15:32:51.130Z,7.75
2018-12-27T15:35:20.925Z,7.98
2018-12-27T15:37:50.625Z,7.90
2018-12-27T15:40:20.425Z,7.93
2018-12-27T15:42:50.207Z,7.96
2018-12-27T15:45:20.125Z,7.86
2018-12-27T15:47:49.827Z,7.93
2018-12-27T15:50:19.625Z,7.83
2018-12-27T15:52:49.332Z,7.91
2018-12-27T15:55:19.049Z,7.90
2018-12-27T15:57:48.833Z,7.80
2018-12-27T16:00:18.553Z,7.86
2018-12-27T16:02:48.242Z,7.83
2018-12-27T16:05:17.978Z,7.88
2018-12-27T16:07:47.740Z,7.78
2018-12-27T16:10:17.462Z,7.93
2018-12-27T16:12:47.252Z,7.74
2018-12-27T16:15:16.971Z,7.91
2018-12-27T16:17:46.661Z,7.92
2018-12-27T16:20:16.437Z,7.70
2018-12-27T16:22:46.231Z,7.87
2018-12-27T16:25:16.328Z,7.88
2018-12-27T16:27:46.004Z,7.80
2018-12-27T16:30:15.817Z,7.90
2018-12-27T16:32:45.523Z,7.89
2018-12-27T16:35:15.239Z,7.89
2018-12-27T16:37:44.952Z,7.95
2018-12-27T16:40:16.567Z,7.86
2018-12-27T16:42:46.259Z,8.01
2018-12-27T16:45:16.059Z,7.79
2018-12-27T16:47:45.840Z,7.81
2018-12-27T16:50:15.611Z,7.82
2018-12-27T16:52:45.338Z,7.88
2018-12-27T16:55:15.046Z,7.90
2018-12-27T16:57:44.745Z,7.92
2018-12-27T17:00:14.512Z,7.95
2018-12-27T17:02:44.278Z,7.90
2018-12-27T17:05:14.038Z,7.85
2018-12-27T17:07:44.287Z,8.01
2018-12-27T17:10:14.051Z,7.95
2018-12-27T17:12:43.805Z,7.83
2018-12-27T17:15:13.571Z,7.89
2018-12-27T17:17:43.292Z,7.92
2018-12-27T17:20:12.969Z,8.00
2018-12-27T17:22:42.886Z,7.93
2018-12-27T17:25:12.666Z,7.90
2018-12-27T17:27:42.397Z,7.88
2018-12-27T17:30:12.225Z,7.87
2018-12-27T17:32:42.037Z,7.81
2018-12-27T17:35:11.902Z,7.73
2018-12-27T17:37:41.603Z,7.84
2018-12-27T17:40:11.667Z,7.83
2018-12-27T17:42:41.479Z,7.76
2018-12-27T17:45:11.325Z,7.81
2018-12-27T17:47:41.157Z,7.87
2018-12-27T17:50:10.982Z,7.77
2018-12-27T17:52:40.696Z,7.89
2018-12-27T17:55:10.594Z,7.78
2018-12-27T17:57:40.360Z,7.67
2018-12-27T18:00:10.095Z,7.86
2018-12-27T18:02:39.889Z,7.76
2018-12-27T18:05:09.717Z,7.78
2018-12-27T18:07:39.436Z,7.82
2018-12-27T18:10:09.303Z,7.81
2018-12-27T18:12:39.086Z,7.89
2018-12-27T18:15:08.916Z,7.80
2018-12-27T18:17:38.728Z,7.66
2018-12-27T18:20:08.605Z,7.67
2018-12-27T18:22:38.400Z,7.76
2018-12-27T18:25:08.119Z,7.68
2018-12-27T18:27:37.925Z,7.73
2018-12-27T18:30:08.278Z,7.68
2018-12-27T18:32:38.049Z,7.72
2018-12-27T18:35:08.064Z,7.76
2018-12-27T18:37:38.099Z,7.75
2018-12-27T18:40:07.890Z,7.73
2018-12-27T18:42:37.760Z,7.71
2018-12-27T18:45:07.909Z,7.75
2018-12-27T18:47:37.610Z,7.67
2018-12-27T18:50:07.599Z,7.78
2018-12-27T18:52:37.419Z,7.72
2018-12-27T18:55:07.272Z,7.69
2018-12-27T18:57:37.082Z,7.74
2018-12-27T19:00:08.509Z,7.92
2018-12-27T19:02:41.875Z,7.78
2018-12-27T19:05:09.800Z,7.86
2018-12-27T19:07:44.956Z,7.72
2018-12-27T19:10:11.121Z,7.79
2018-12-27T19:13:04.292Z,7.85
2018-12-27T19:15:49.873Z,7.89
2018-12-27T19:18:48.580Z,7.60
2018-12-27T19:21:24.574Z,7.71
2018-12-27T19:23:54.307Z,7.57
2018-12-27T19:26:24.015Z,7.74
2018-12-27T19:28:53.775Z,7.80
2018-12-27T19:31:23.651Z,7.77
2018-12-27T19:33:53.386Z,7.76
2018-12-27T19:36:23.242Z,7.83
2018-12-27T19:38:52.965Z,7.69
2018-12-27T19:41:22.781Z,7.77
2018-12-27T19:43:52.829Z,7.81
2018-12-27T19:46:22.666Z,7.87
2018-12-27T19:48:52.473Z,7.89
2018-12-27T19:51:22.487Z,7.69
2018-12-27T19:53:52.276Z,7.89
2018-12-27T19:56:22.077Z,7.95
2018-12-27T19:58:52.143Z,7.67
2018-12-27T20:01:22.052Z,7.87
2018-12-27T20:03:51.778Z,7.76
2018-12-27T20:06:21.572Z,7.77
2018-12-27T20:08:51.361Z,7.81
2018-12-27T20:11:21.087Z,7.80
2018-12-27T20:13:50.874Z,7.84
2018-12-27T20:16:20.717Z,7.78
2018-12-27T20:18:50.553Z,7.91
2018-12-27T20:21:20.398Z,7.90
2018-12-27T20:23:50.121Z,7.66
2018-12-27T20:26:19.856Z,7.77
2018-12-27T20:28:49.592Z,7.85
2018-12-27T20:31:19.389Z,7.82
2018-12-27T20:33:49.148Z,7.75
2018-12-27T20:36:19.037Z,7.81
2018-12-27T20:38:48.783Z,7.89
2018-12-27T20:41:21.491Z,7.89
2018-12-27T20:43:51.227Z,7.73
2018-12-27T20:46:20.992Z,7.75
2018-12-27T20:48:50.729Z,7.91
2018-12-27T20:51:20.532Z,7.97
2018-12-27T20:53:50.343Z,7.91
2018-12-27T20:56:20.139Z,7.75
2018-12-27T20:58:49.852Z,7.88
2018-12-27T21:01:19.688Z,7.80
2018-12-27T21:03:49.407Z,7.92
2018-12-27T21:06:19.082Z,7.87
2018-12-27T21:08:48.802Z,7.78
2018-12-27T21:11:18.522Z,7.68
2018-12-27T21:13:48.214Z,7.89
2018-12-27T21:16:18.002Z,7.79
2018-12-27T21:18:47.773Z,7.85
2018-12-27T21:21:17.548Z,7.77
2018-12-27T21:23:47.224Z,7.70
2018-12-27T21:26:16.970Z,7.78
2018-12-27T21:28:46.841Z,7.77
2018-12-27T21:31:16.531Z,7.72
2018-12-27T21:33:46.269Z,7.84
2018-12-27T21:36:16.083Z,7.85
2018-12-27T21:38:45.881Z,7.78
2018-12-27T21:41:15.662Z,7.73
2018-12-27T21:43:45.451Z,7.75
2018-12-27T21:46:15.255Z,7.68
2018-12-27T21:48:44.957Z,7.69
2018-12-27T21:51:14.891Z,7.92
2018-12-27T21:53:44.695Z,7.64
2018-12-27T21:56:14.651Z,7.82
2018-12-27T21:58:44.341Z,7.70
2018-12-27T22:01:14.114Z,7.71
2018-12-27T22:03:43.955Z,7.66
2018-12-27T22:06:15.481Z,7.79
2018-12-27T22:08:45.197Z,7.67
2018-12-27T22:11:15.022Z,7.67
2018-12-27T22:13:44.826Z,7.72
2018-12-27T22:16:14.580Z,7.80
2018-12-27T22:18:44.418Z,7.73
2018-12-27T22:21:14.139Z,7.77
2018-12-27T22:23:43.905Z,7.85
2018-12-27T22:26:13.739Z,7.82
2018-12-27T22:28:43.467Z,7.76
2018-12-27T22:31:13.257Z,7.82
2018-12-27T22:33:43.054Z,7.85
2018-12-27T22:36:12.826Z,8.03
2018-12-27T22:38:42.561Z,7.94
2018-12-27T22:41:12.244Z,7.89
2018-12-27T22:43:42.207Z,8.03
2018-12-27T22:46:11.970Z,7.76
2018-12-27T22:48:41.885Z,7.92
2018-12-27T22:51:11.697Z,7.90
2018-12-27T22:53:41.390Z,7.98
2018-12-27T22:56:11.168Z,7.83
2018-12-27T22:58:40.841Z,7.88
2018-12-27T23:01:10.780Z,7.84
2018-12-27T23:03:40.532Z,7.73
2018-12-27T23:06:10.336Z,7.77
2018-12-27T23:08:43.129Z,7.71
2018-12-27T23:11:11.515Z,7.74
2018-12-27T23:13:41.212Z,7.74
2018-12-27T23:16:10.984Z,7.80
2018-12-27T23:18:40.806Z,7.72
2018-12-27T23:21:10.509Z,7.70
2018-12-27T23:23:45.623Z,7.65
2018-12-27T23:26:25.553Z,7.73
2018-12-27T23:28:58.477Z,7.66
2018-12-27T23:31:30.691Z,7.63
2018-12-27T23:34:05.617Z,7.66
2018-12-27T23:36:45.426Z,7.64
2018-12-27T23:39:29.684Z,7.68
2018-12-27T23:42:00.106Z,7.69
2018-12-27T23:44:36.022Z,7.74
2018-12-27T23:47:05.978Z,7.75
2018-12-27T23:49:35.659Z,7.68
2018-12-27T23:52:05.725Z,7.69
2018-12-27T23:54:35.387Z,7.67
2018-12-27T23:57:04.952Z,7.77
2018-12-27T23:59:34.749Z,7.73
